| time (UTC) | temp F | wind direction | speed knots | gust knots | rain 1hr in | rain 24hr in | rain mn in | humidity % | barometer mb |
| 20260902070110 | 63 | 229 | 1.7 | 3.5 | 0.00 | 0.24 | 0.00 | 82 | 1015.9 |
| 20260902064706 | 62 | 234 | 1.7 | 5.2 | 0.00 | 0.24 | 0.00 | 86 | 1016.0 |
| 20260902064610 | 62 | 234 | 1.7 | 5.2 | 0.00 | 0.24 | 0.00 | 86 | 1016.0 |
| 20260902063110 | 60 | 209 | 1.7 | 7.8 | 0.00 | 0.24 | 0.00 | 90 | 1015.9 |
| 20260902061609 | 60 | 324 | 0.9 | 4.3 | 0.00 | 0.24 | 0.00 | 88 | 1015.9 |
| 20260902060109 | 59 | 180 | 0.9 | 4.3 | 0.00 | 0.26 | 0.00 | 87 | 1015.8 |
| 20260902054609 | 59 | 121 | 0.0 | 2.6 | 0.00 | 0.26 | 0.00 | 88 | 1015.7 |
| 20260902053109 | 59 | 233 | 0.0 | 1.7 | 0.00 | 0.26 | 0.00 | 89 | 1015.7 |
| 20260902051745 | 58 | 254 | 0.0 | 0.0 | 0.00 | 0.26 | 0.00 | 91 | 1015.5 |
| 20260902051609 | 58 | 254 | 0.0 | 0.0 | 0.00 | 0.26 | 0.00 | 91 | 1015.5 |
| 20260902050109 | 56 | 56 | 0.0 | 0.0 | 0.00 | 0.26 | 0.00 | 97 | 1015.3 |
| 20260902044758 | 53 | 72 | 0.0 | 0.0 | 0.00 | 0.26 | 0.00 | 97 | 1015.2 |
| 20260902044609 | 53 | 72 | 0.0 | 0.0 | 0.00 | 0.26 | 0.00 | 97 | 1015.2 |
| 20260902043207 | 52 | 318 | 0.0 | 0.0 | 0.01 | 0.26 | 0.00 | 97 | 1015.2 |
| 20260902043109 | 52 | 318 | 0.0 | 0.0 | 0.01 | 0.26 | 0.00 | 97 | 1015.2 |
| 20260902041609 | 52 | 318 | 0.0 | 0.0 | 0.01 | 0.26 | 0.00 | 97 | 1015.2 |
| 20260902040230 | 53 | 318 | 0.0 | 0.0 | 0.01 | 0.26 | 0.00 | 97 | 1015.2 |
| 20260902040109 | 53 | 318 | 0.0 | 0.0 | 0.01 | 0.26 | 0.00 | 97 | 1015.2 |
| 20260902034848 | 53 | 318 | 0.0 | 0.0 | 0.01 | 0.26 | 0.00 | 97 | 1015.2 |
| 20260902034609 | 53 | 318 | 0.0 | 0.0 | 0.01 | 0.26 | 0.00 | 97 | 1015.2 |
| 20260902033248 | 53 | 318 | 0.0 | 0.0 | 0.00 | 0.25 | 0.00 | 96 | 1015.1 |
| 20260902033109 | 53 | 318 | 0.0 | 0.0 | 0.00 | 0.25 | 0.00 | 96 | 1015.1 |
| 20260902031829 | 54 | 318 | 0.0 | 0.0 | 0.00 | 0.25 | 0.00 | 96 | 1015.1 |
| 20260902031609 | 54 | 318 | 0.0 | 0.0 | 0.00 | 0.25 | 0.00 | 96 | 1015.1 |
| 20260902030109 | 55 | 318 | 0.0 | 0.0 | 0.00 | 0.25 | 0.00 | 96 | 1015.0 |
| 20260902024609 | 56 | 320 | 0.0 | 0.0 | 0.00 | 0.25 | 0.00 | 95 | 1015.0 |
| 20260902023109 | 56 | 48 | 0.0 | 3.5 | 0.00 | 0.25 | 0.00 | 94 | 1015.0 |
| 20260902021608 | 57 | 282 | 0.9 | 3.5 | 0.00 | 0.25 | 0.00 | 93 | 1015.0 |
| 20260902020147 | 57 | 312 | 0.0 | 0.0 | 0.00 | 0.25 | 0.00 | 97 | 1014.9 |
| 20260902020108 | 57 | 312 | 0.0 | 0.0 | 0.00 | 0.25 | 0.00 | 97 | 1014.9 |
| 20260902014608 | 57 | 12 | 0.0 | 0.0 | 0.00 | 0.25 | 0.00 | 97 | 1014.9 |
| 20260902013108 | 58 | 12 | 0.0 | 0.0 | 0.00 | 0.25 | 0.00 | 97 | 1014.9 |
| 20260902011608 | 57 | 102 | 0.0 | 0.0 | 0.00 | 0.25 | 0.00 | 97 | 1014.8 |
| 20260902010108 | 57 | 54 | 0.0 | 0.0 | 0.00 | 0.25 | 0.00 | 97 | 1014.7 |
| 20260902004608 | 57 | 78 | 0.0 | 0.0 | 0.00 | 0.25 | 0.00 | 97 | 1014.7 |
| 20260902003108 | 57 | 78 | 0.0 | 0.0 | 0.00 | 0.25 | 0.00 | 97 | 1014.7 |
| 20260902001608 | 57 | 85 | 0.0 | 0.0 | 0.00 | 0.25 | 0.00 | 97 | 1014.7 |
| 20260902000108 | 58 | 342 | 0.0 | 0.0 | 0.00 | 0.25 | 0.00 | 97 | 1014.7 |
| 20260901234640 | 57 | 111 | 0.0 | 0.0 | 0.00 | 0.25 | 0.00 | 97 | 1014.7 |
| 20260901234608 | 57 | 111 | 0.0 | 0.0 | 0.00 | 0.25 | 0.00 | 97 | 1014.7 |
| 20260901233108 | 58 | 18 | 0.0 | 0.0 | 0.00 | 0.25 | 0.00 | 97 | 1014.6 |
| 20260901231608 | 58 | 15 | 0.0 | 0.0 | 0.00 | 0.25 | 0.00 | 97 | 1014.5 |
| 20260901230108 | 58 | 96 | 0.0 | 0.0 | 0.00 | 0.25 | 0.00 | 97 | 1014.6 |
| 20260901224608 | 58 | 96 | 0.0 | 0.0 | 0.00 | 0.25 | 0.00 | 97 | 1014.6 |
| 20260901223108 | 57 | 102 | 0.0 | 0.0 | 0.00 | 0.25 | 0.00 | 97 | 1014.7 |
| 20260901221608 | 57 | 96 | 0.0 | 0.0 | 0.00 | 0.25 | 0.00 | 96 | 1014.7 |
| 20260901220225 | 57 | 9 | 0.0 | 0.0 | 0.00 | 0.25 | 0.00 | 96 | 1014.6 |
| 20260901220108 | 57 | 9 | 0.0 | 0.0 | 0.00 | 0.25 | 0.00 | 96 | 1014.6 |
| 20260901214741 | 57 | 318 | 0.0 | 0.0 | 0.00 | 0.25 | 0.00 | 96 | 1014.6 |
| 20260901214608 | 57 | 318 | 0.0 | 0.0 | 0.00 | 0.25 | 0.00 | 96 | 1014.6 |
| 20260901213107 | 58 | 306 | 0.0 | 0.0 | 0.01 | 0.25 | 0.00 | 96 | 1014.4 |
| 20260901211607 | 59 | 4 | 0.0 | 0.0 | 0.01 | 0.25 | 0.00 | 96 | 1014.3 |
| 20260901210107 | 60 | 70 | 0.0 | 1.7 | 0.04 | 0.25 | 0.00 | 95 | 1014.4 |
| 20260901204607 | 60 | 49 | 0.0 | 0.9 | 0.04 | 0.25 | 0.00 | 94 | 1014.5 |
| 20260901203107 | 60 | 180 | 0.0 | 1.7 | 0.03 | 0.24 | 0.00 | 93 | 1014.2 |
| 20260901201607 | 61 | 180 | 0.0 | 2.6 | 0.02 | 0.23 | 0.00 | 86 | 1014.4 |
| 20260901200107 | 62 | 330 | 0.9 | 4.3 | 0.00 | 0.21 | 0.00 | 83 | 1014.3 |
| 20260901194607 | 59 | 264 | 0.9 | 5.2 | 0.00 | 0.21 | 0.00 | 88 | 1014.0 |
| 20260901193107 | 58 | 96 | 0.0 | 0.0 | 0.00 | 0.21 | 0.00 | 95 | 1013.7 |
| 20260901191607 | 58 | 48 | 0.0 | 0.0 | 0.00 | 0.21 | 0.00 | 95 | 1013.7 |
| 20260901190106 | 58 | 48 | 0.0 | 0.0 | 0.00 | 0.21 | 0.00 | 95 | 1013.6 |
| 20260901184637 | 59 | 48 | 0.0 | 0.0 | 0.00 | 0.21 | 0.00 | 95 | 1013.5 |
| 20260901184606 | 59 | 48 | 0.0 | 0.0 | 0.00 | 0.21 | 0.00 | 95 | 1013.5 |
| 20260901183106 | 59 | 9 | 0.0 | 0.0 | 0.00 | 0.21 | 0.00 | 94 | 1013.3 |
| 20260901181606 | 59 | 9 | 0.0 | 0.0 | 0.00 | 0.21 | 0.00 | 93 | 1013.2 |
| 20260901180104 | 60 | 324 | 0.0 | 0.0 | 0.00 | 0.21 | 0.00 | 92 | 1013.1 |
| 20260901174604 | 61 | 318 | 0.0 | 0.0 | 0.00 | 0.21 | 0.00 | 91 | 1013.0 |
| 20260901173104 | 62 | 6 | 0.0 | 0.0 | 0.00 | 0.21 | 0.00 | 88 | 1012.8 |
| 20260901171637 | 64 | 5 | 0.0 | 0.0 | 0.00 | 0.21 | 0.00 | 85 | 1012.7 |
| 20260901171604 | 64 | 5 | 0.0 | 0.0 | 0.00 | 0.21 | 0.00 | 85 | 1012.7 |
| 20260901170104 | 65 | 133 | 0.0 | 0.0 | 0.00 | 0.21 | 0.00 | 81 | 1012.6 |
| 20260901164603 | 67 | 208 | 0.0 | 1.7 | 0.00 | 0.21 | 0.00 | 76 | 1012.7 |
| 20260901163103 | 68 | 67 | 0.9 | 3.5 | 0.00 | 0.21 | 0.00 | 72 | 1012.7 |
| 20260901161603 | 69 | 174 | 0.9 | 4.3 | 0.00 | 0.21 | 0.00 | 71 | 1012.7 |
| 20260901160103 | 69 | 264 | 0.9 | 3.5 | 0.00 | 0.21 | 0.00 | 70 | 1012.6 |
| 20260901154603 | 69 | 337 | 1.7 | 5.2 | 0.00 | 0.21 | 0.00 | 68 | 1012.6 |
| 20260901153103 | 69 | 261 | 1.7 | 6.1 | 0.00 | 0.21 | 0.00 | 72 | 1012.5 |
| 20260901151603 | 69 | 282 | 1.7 | 6.1 | 0.00 | 0.21 | 0.00 | 70 | 1012.5 |
| 20260901150103 | 70 | 244 | 0.9 | 5.2 | 0.00 | 0.21 | 0.00 | 68 | 1012.5 |
| 20260901144603 | 68 | 259 | 0.9 | 4.3 | 0.00 | 0.21 | 0.00 | 70 | 1012.6 |
| 20260901143103 | 67 | 276 | 0.9 | 4.3 | 0.00 | 0.21 | 0.00 | 76 | 1012.8 |
| 20260901141603 | 66 | 246 | 0.0 | 2.6 | 0.00 | 0.21 | 0.00 | 83 | 1012.7 |
| 20260901140103 | 66 | 282 | 1.7 | 6.1 | 0.00 | 0.21 | 0.00 | 83 | 1012.7 |
| 20260901134603 | 67 | 238 | 2.6 | 6.1 | 0.00 | 0.21 | 0.00 | 81 | 1012.8 |
| 20260901133103 | 66 | 290 | 1.7 | 7.8 | 0.10 | 0.21 | 0.00 | 85 | 1012.8 |
| 20260901131603 | 64 | 282 | 0.9 | 3.5 | 0.12 | 0.21 | 0.00 | 90 | 1012.9 |
| 20260901124602 | 60 | 198 | 2.6 | 12.2 | 0.12 | 0.21 | 0.00 | 93 | 1013.0 |
| 20260901123134 | 62 | 282 | 3.5 | 13.0 | 0.03 | 0.12 | 0.00 | 87 | 1013.3 |
| 20260901123102 | 62 | 282 | 3.5 | 13.0 | 0.03 | 0.12 | 0.00 | 87 | 1013.3 |
| 20260901121600 | 68 | 249 | 2.6 | 7.8 | 0.00 | 0.09 | 0.00 | 73 | 1012.5 |
| 20260901120100 | 68 | 166 | 3.5 | 8.7 | 0.00 | 0.09 | 0.00 | 73 | 1012.6 |
| 20260901114600 | 68 | 199 | 2.6 | 7.8 | 0.00 | 0.09 | 0.00 | 76 | 1012.6 |
| 20260901113100 | 67 | 253 | 2.6 | 7.8 | 0.00 | 0.09 | 0.00 | 75 | 1012.7 |
| 20260901111600 | 66 | 30 | 3.5 | 8.7 | 0.00 | 0.09 | 0.00 | 78 | 1012.7 |
| 20260901110100 | 65 | 245 | 3.5 | 7.8 | 0.00 | 0.09 | 0.00 | 83 | 1012.7 |
| 20260901104600 | 65 | 288 | 1.7 | 7.8 | 0.00 | 0.09 | 0.00 | 84 | 1012.7 |
| 20260901103100 | 65 | 252 | 2.6 | 8.7 | 0.01 | 0.09 | 0.00 | 84 | 1012.5 |
| 20260901101600 | 64 | 286 | 1.7 | 6.1 | 0.03 | 0.09 | 0.00 | 88 | 1012.4 |
| 20260901100059 | 63 | 343 | 2.6 | 8.7 | 0.06 | 0.09 | 0.00 | 90 | 1012.4 |
| 20260901094559 | 61 | 264 | 1.7 | 5.2 | 0.06 | 0.09 | 0.00 | 92 | 1012.2 |
| 20260901093059 | 61 | 196 | 1.7 | 6.1 | 0.06 | 0.08 | 0.00 | 93 | 1012.2 |
| 20260901091558 | 63 | 207 | 1.7 | 5.2 | 0.01 | 0.03 | 0.00 | 89 | 1012.1 |
| 20260901090058 | 61 | 186 | 1.7 | 5.2 | 0.01 | 0.03 | 0.00 | 90 | 1012.0 |
| 20260901084558 | 63 | 26 | 2.6 | 7.8 | 0.00 | 0.02 | 0.00 | 84 | 1011.8 |
| 20260901083058 | 63 | 196 | 2.6 | 5.2 | 0.00 | 0.02 | 0.00 | 83 | 1011.8 |
| 20260901081558 | 62 | 199 | 1.7 | 6.1 | 0.00 | 0.02 | 0.00 | 87 | 1011.7 |
| 20260901080058 | 62 | 300 | 2.6 | 6.1 | 0.00 | 0.02 | 0.00 | 86 | 1011.7 |
| 20260901074558 | 61 | 288 | 3.5 | 7.8 | 0.00 | 0.02 | 0.00 | 88 | 1011.5 |
| 20260901073058 | 60 | 288 | 2.6 | 6.1 | 0.00 | 0.02 | 0.00 | 89 | 1011.2 |
| 20260901071558 | 60 | 300 | 1.7 | 7.8 | 0.00 | 0.02 | 0.00 | 92 | 1011.1 |